sensor_id;sensor_type;location;lat;lon;timestamp;pressure;altitude;pressure_sealevel;temperature;humidity
75629;BME280;64213;46.452;16.994;2023-03-03T00:00:24;100224.41;;;3.24;100.00
75629;BME280;64213;46.452;16.994;2023-03-03T00:03:26;100228.69;;;3.26;100.00
75629;BME280;64213;46.452;16.994;2023-03-03T00:06:28;100222.69;;;3.23;100.00
75629;BME280;64213;46.452;16.994;2023-03-03T00:09:35;100228.88;;;3.20;100.00
75629;BME280;64213;46.452;16.994;2023-03-03T00:12:46;100230.66;;;3.18;100.00
75629;BME280;64213;46.452;16.994;2023-03-03T00:15:49;100223.81;;;3.14;100.00
75629;BME280;64213;46.452;16.994;2023-03-03T00:18:52;100226.38;;;3.16;100.00
75629;BME280;64213;46.452;16.994;2023-03-03T00:21:56;100224.84;;;3.09;100.00
75629;BME280;64213;46.452;16.994;2023-03-03T00:25:29;100229.06;;;3.14;100.00
75629;BME280;64213;46.452;16.994;2023-03-03T00:28:49;100224.84;;;3.09;100.00
75629;BME280;64213;46.452;16.994;2023-03-03T00:31:52;100229.31;;;3.05;100.00
75629;BME280;64213;46.452;16.994;2023-03-03T00:35:01;100225.03;;;3.02;100.00
75629;BME280;64213;46.452;16.994;2023-03-03T00:38:19;100211.19;;;3.00;100.00
75629;BME280;64213;46.452;16.994;2023-03-03T00:41:26;100217.28;;;3.01;100.00
75629;BME280;64213;46.452;16.994;2023-03-03T00:44:37;100210.28;;;3.01;100.00
75629;BME280;64213;46.452;16.994;2023-03-03T00:47:42;100208.50;;;3.02;100.00
75629;BME280;64213;46.452;16.994;2023-03-03T00:50:44;100205.88;;;3.03;100.00
75629;BME280;64213;46.452;16.994;2023-03-03T00:53:46;100204.91;;;3.06;100.00
75629;BME280;64213;46.452;16.994;2023-03-03T00:56:49;100197.03;;;3.08;100.00
75629;BME280;64213;46.452;16.994;2023-03-03T00:59:51;100191.72;;;3.11;100.00
75629;BME280;64213;46.452;16.994;2023-03-03T01:02:53;100192.66;;;3.08;100.00
75629;BME280;64213;46.452;16.994;2023-03-03T01:05:55;100191.84;;;3.06;100.00
75629;BME280;64213;46.452;16.994;2023-03-03T01:08:57;100183.31;;;2.99;100.00
75629;BME280;64213;46.452;16.994;2023-03-03T01:12:00;100179.75;;;3.03;100.00
75629;BME280;64213;46.452;16.994;2023-03-03T01:15:04;100172.78;;;3.02;100.00
75629;BME280;64213;46.452;16.994;2023-03-03T01:18:06;100168.47;;;3.01;100.00
75629;BME280;64213;46.452;16.994;2023-03-03T01:21:10;100163.97;;;3.07;100.00
75629;BME280;64213;46.452;16.994;2023-03-03T01:24:13;100159.63;;;3.06;100.00
75629;BME280;64213;46.452;16.994;2023-03-03T01:27:15;100157.84;;;3.06;100.00
75629;BME280;64213;46.452;16.994;2023-03-03T01:30:17;100154.38;;;3.07;100.00
75629;BME280;64213;46.452;16.994;2023-03-03T01:33:19;100151.69;;;3.09;100.00
75629;BME280;64213;46.452;16.994;2023-03-03T01:36:23;100146.47;;;3.09;100.00
75629;BME280;64213;46.452;16.994;2023-03-03T01:39:26;100143.38;;;2.96;100.00
75629;BME280;64213;46.452;16.994;2023-03-03T01:42:28;100139.00;;;2.96;100.00
75629;BME280;64213;46.452;16.994;2023-03-03T01:49:01;100126.56;;;3.05;100.00
75629;BME280;64213;46.452;16.994;2023-03-03T01:52:22;100130.94;;;3.04;100.00
75629;BME280;64213;46.452;16.994;2023-03-03T01:55:33;100119.63;;;3.03;100.00
75629;BME280;64213;46.452;16.994;2023-03-03T01:58:40;100130.94;;;3.04;100.00
75629;BME280;64213;46.452;16.994;2023-03-03T02:01:46;100126.56;;;3.05;100.00
75629;BME280;64213;46.452;16.994;2023-03-03T02:04:49;100121.03;;;2.87;100.00
75629;BME280;64213;46.452;16.994;2023-03-03T02:07:51;100123.47;;;2.92;100.00
75629;BME280;64213;46.452;16.994;2023-03-03T02:10:55;100127.66;;;2.97;100.00
75629;BME280;64213;46.452;16.994;2023-03-03T02:13:58;100118.00;;;2.99;100.00
75629;BME280;64213;46.452;16.994;2023-03-03T02:17:00;100123.22;;;2.99;100.00
75629;BME280;64213;46.452;16.994;2023-03-03T02:26:24;100118.72;;;3.05;100.00
75629;BME280;64213;46.452;16.994;2023-03-03T02:29:26;100107.47;;;3.02;100.00
75629;BME280;64213;46.452;16.994;2023-03-03T02:32:28;100124.78;;;3.07;100.00
75629;BME280;64213;46.452;16.994;2023-03-03T02:35:36;100119.53;;;3.07;100.00
75629;BME280;64213;46.452;16.994;2023-03-03T02:38:50;100117.03;;;3.03;100.00
75629;BME280;64213;46.452;16.994;2023-03-03T02:45:07;100113.59;;;3.01;100.00
75629;BME280;64213;46.452;16.994;2023-03-03T02:48:10;100124.16;;;2.98;100.00
75629;BME280;64213;46.452;16.994;2023-03-03T02:51:12;100108.47;;;2.98;100.00
75629;BME280;64213;46.452;16.994;2023-03-03T02:54:16;100112.84;;;2.98;100.00
75629;BME280;64213;46.452;16.994;2023-03-03T02:57:18;100111.94;;;2.99;100.00
75629;BME280;64213;46.452;16.994;2023-03-03T03:00:21;100116.31;;;2.98;100.00
75629;BME280;64213;46.452;16.994;2023-03-03T03:03:23;100111.16;;;2.97;100.00
75629;BME280;64213;46.452;16.994;2023-03-03T03:06:25;100120.81;;;2.93;100.00
75629;BME280;64213;46.452;16.994;2023-03-03T03:09:27;100113.88;;;2.92;100.00
75629;BME280;64213;46.452;16.994;2023-03-03T03:12:29;100108.66;;;2.92;100.00
75629;BME280;64213;46.452;16.994;2023-03-03T03:15:34;100105.28;;;2.89;100.00
75629;BME280;64213;46.452;16.994;2023-03-03T03:18:36;100104.44;;;2.88;100.00
75629;BME280;64213;46.452;16.994;2023-03-03T03:21:38;100110.59;;;2.87;100.00
75629;BME280;64213;46.452;16.994;2023-03-03T03:24:40;100112.41;;;2.84;100.00
75629;BME280;64213;46.452;16.994;2023-03-03T03:27:42;100110.78;;;2.81;100.00
75629;BME280;64213;46.452;16.994;2023-03-03T03:30:44;100110.09;;;2.74;100.00
75629;BME280;64213;46.452;16.994;2023-03-03T03:33:47;100096.91;;;2.77;100.00
75629;BME280;64213;46.452;16.994;2023-03-03T03:36:49;100104.63;;;2.82;100.00
75629;BME280;64213;46.452;16.994;2023-03-03T03:39:51;100104.66;;;2.80;100.00
75629;BME280;64213;46.452;16.994;2023-03-03T03:42:54;100096.88;;;2.79;100.00
75629;BME280;64213;46.452;16.994;2023-03-03T03:45:56;100106.50;;;2.78;100.00
75629;BME280;64213;46.452;16.994;2023-03-03T03:48:59;100090.91;;;2.75;100.00
75629;BME280;64213;46.452;16.994;2023-03-03T03:52:01;100094.28;;;2.79;100.00
75629;BME280;64213;46.452;16.994;2023-03-03T03:55:03;100098.88;;;2.71;100.00
75629;BME280;64213;46.452;16.994;2023-03-03T03:58:05;100091.94;;;2.70;100.00
75629;BME280;64213;46.452;16.994;2023-03-03T04:01:07;100101.37;;;2.74;100.00
75629;BME280;64213;46.452;16.994;2023-03-03T04:04:10;100099.88;;;2.67;100.00
75629;BME280;64213;46.452;16.994;2023-03-03T04:07:12;100103.41;;;2.66;100.00
75629;BME280;64213;46.452;16.994;2023-03-03T04:10:14;100105.25;;;2.62;100.00
75629;BME280;64213;46.452;16.994;2023-03-03T04:13:18;100104.50;;;2.59;100.00
75629;BME280;64213;46.452;16.994;2023-03-03T04:16:20;100101.06;;;2.56;100.00
75629;BME280;64213;46.452;16.994;2023-03-03T04:19:22;100100.31;;;2.53;100.00
75629;BME280;64213;46.452;16.994;2023-03-03T04:22:25;100100.22;;;2.56;100.00
75629;BME280;64213;46.452;16.994;2023-03-03T04:25:27;100104.69;;;2.52;100.00
75629;BME280;64213;46.452;16.994;2023-03-03T04:28:29;100102.81;;;2.56;100.00
75629;BME280;64213;46.452;16.994;2023-03-03T04:31:31;100099.38;;;2.55;100.00
75629;BME280;64213;46.452;16.994;2023-03-03T04:34:34;100100.44;;;2.48;100.00
75629;BME280;64213;46.452;16.994;2023-03-03T04:37:36;100096.94;;;2.49;100.00
75629;BME280;64213;46.452;16.994;2023-03-03T04:40:40;100101.34;;;2.47;100.00
75629;BME280;64213;46.452;16.994;2023-03-03T04:43:42;100098.47;;;2.55;100.00
75629;BME280;64213;46.452;16.994;2023-03-03T04:46:45;100097.63;;;2.54;100.00
75629;BME280;64213;46.452;16.994;2023-03-03T04:49:47;100102.75;;;2.58;100.00
75629;BME280;64213;46.452;16.994;2023-03-03T04:52:49;100109.72;;;2.59;100.00
75629;BME280;64213;46.452;16.994;2023-03-03T04:55:52;100104.53;;;2.57;100.00
75629;BME280;64213;46.452;16.994;2023-03-03T04:58:55;100103.72;;;2.55;100.00
75629;BME280;64213;46.452;16.994;2023-03-03T05:01:57;100105.28;;;2.61;100.00
75629;BME280;64213;46.452;16.994;2023-03-03T05:04:59;100101.78;;;2.62;100.00
75629;BME280;64213;46.452;16.994;2023-03-03T05:08:01;100101.06;;;2.56;100.00
75629;BME280;64213;46.452;16.994;2023-03-03T05:11:04;100103.72;;;2.55;100.00
75629;BME280;64213;46.452;16.994;2023-03-03T05:14:06;100107.31;;;2.51;100.00
75629;BME280;64213;46.452;16.994;2023-03-03T05:17:09;100103.72;;;2.55;100.00
75629;BME280;64213;46.452;16.994;2023-03-03T05:20:12;100103.78;;;2.52;100.00
75629;BME280;64213;46.452;16.994;2023-03-03T05:23:14;100107.22;;;2.54;100.00
75629;BME280;64213;46.452;16.994;2023-03-03T05:26:16;100105.63;;;2.50;100.00
75629;BME280;64213;46.452;16.994;2023-03-03T05:29:18;100103.72;;;2.55;100.00
75629;BME280;64213;46.452;16.994;2023-03-03T05:32:20;100114.06;;;2.58;100.00
75629;BME280;64213;46.452;16.994;2023-03-03T05:35:23;100117.50;;;2.60;100.00
75629;BME280;64213;46.452;16.994;2023-03-03T05:38:25;100108.81;;;2.60;100.00
75629;BME280;64213;46.452;16.994;2023-03-03T05:41:27;100119.16;;;2.63;100.00
75629;BME280;64213;46.452;16.994;2023-03-03T05:44:29;100119.06;;;2.66;100.00
75629;BME280;64213;46.452;16.994;2023-03-03T05:47:31;100118.06;;;2.70;100.00
75629;BME280;64213;46.452;16.994;2023-03-03T05:50:33;100115.53;;;2.67;100.00
75629;BME280;64213;46.452;16.994;2023-03-03T05:53:37;100124.19;;;2.69;100.00
75629;BME280;64213;46.452;16.994;2023-03-03T05:56:39;100131.09;;;2.71;100.00
75629;BME280;64213;46.452;16.994;2023-03-03T05:59:41;100132.69;;;2.75;100.00
75629;BME280;64213;46.452;16.994;2023-03-03T06:02:43;100143.91;;;2.79;100.00
75629;BME280;64213;46.452;16.994;2023-03-03T06:05:45;100136.16;;;2.76;100.00
75629;BME280;64213;46.452;16.994;2023-03-03T06:08:47;100140.56;;;2.74;100.00
75629;BME280;64213;46.452;16.994;2023-03-03T06:11:49;100141.31;;;2.77;100.00
75629;BME280;64213;46.452;16.994;2023-03-03T06:14:54;100144.00;;;2.76;100.00
75629;BME280;64213;46.452;16.994;2023-03-03T06:17:56;100142.97;;;2.82;100.00
75629;BME280;64213;46.452;16.994;2023-03-03T06:20:58;100152.56;;;2.81;100.00
75629;BME280;64213;46.452;16.994;2023-03-03T06:24:00;100149.75;;;2.87;100.00
75629;BME280;64213;46.452;16.994;2023-03-03T06:27:02;100136.56;;;2.90;100.00
75629;BME280;64213;46.452;16.994;2023-03-03T06:30:05;100150.47;;;2.92;100.00
75629;BME280;64213;46.452;16.994;2023-03-03T06:33:07;100148.69;;;2.93;100.00
75629;BME280;64213;46.452;16.994;2023-03-03T06:36:09;100153.13;;;2.91;100.00
75629;BME280;64213;46.452;16.994;2023-03-03T06:39:11;100152.16;;;2.93;100.00
75629;BME280;64213;46.452;16.994;2023-03-03T06:42:14;100155.50;;;2.98;100.00
75629;BME280;64213;46.452;16.994;2023-03-03T06:45:16;100159.03;;;2.97;100.00
75629;BME280;64213;46.452;16.994;2023-03-03T06:48:18;100158.13;;;2.98;100.00
75629;BME280;64213;46.452;16.994;2023-03-03T06:51:24;100156.91;;;3.09;100.00
75629;BME280;64213;46.452;16.994;2023-03-03T06:54:29;100163.78;;;3.13;100.00
75629;BME280;64213;46.452;16.994;2023-03-03T06:57:33;100167.28;;;3.12;100.00
75629;BME280;64213;46.452;16.994;2023-03-03T07:00:35;100171.50;;;3.16;100.00
75629;BME280;64213;46.452;16.994;2023-03-03T07:03:37;100175.59;;;3.24;100.00
75629;BME280;64213;46.452;16.994;2023-03-03T07:06:40;100174.56;;;3.29;100.00
75629;BME280;64213;46.452;16.994;2023-03-03T07:09:47;100175.44;;;3.29;100.00
75629;BME280;64213;46.452;16.994;2023-03-03T07:12:50;100183.13;;;3.34;100.00
75629;BME280;64213;46.452;16.994;2023-03-03T07:15:54;100176.69;;;3.44;100.00
75629;BME280;64213;46.452;16.994;2023-03-03T07:18:59;100196.75;;;3.43;100.00
75629;BME280;64213;46.452;16.994;2023-03-03T07:25:25;100190.53;;;3.47;100.00
75629;BME280;64213;46.452;16.994;2023-03-03T07:28:30;100192.34;;;3.45;100.00
75629;BME280;64213;46.452;16.994;2023-03-03T07:31:38;100200.09;;;3.48;100.00
75629;BME280;64213;46.452;16.994;2023-03-03T07:34:47;100202.72;;;3.48;100.00
75629;BME280;64213;46.452;16.994;2023-03-03T07:37:49;100193.19;;;3.46;100.00
75629;BME280;64213;46.452;16.994;2023-03-03T07:40:54;100204.22;;;3.56;100.00
75629;BME280;64213;46.452;16.994;2023-03-03T07:44:15;100204.22;;;3.56;100.00
75629;BME280;64213;46.452;16.994;2023-03-03T07:47:44;100204.84;;;3.64;100.00
75629;BME280;64213;46.452;16.994;2023-03-03T07:50:45;100200.69;;;3.57;100.00
75629;BME280;64213;46.452;16.994;2023-03-03T07:53:47;100198.28;;;3.77;100.00
75629;BME280;64213;46.452;16.994;2023-03-03T07:56:50;100194.84;;;3.75;100.00
75629;BME280;64213;46.452;16.994;2023-03-03T07:59:59;100199.87;;;3.81;100.00
75629;BME280;64213;46.452;16.994;2023-03-03T08:03:13;100204.91;;;3.87;100.00
75629;BME280;64213;46.452;16.994;2023-03-03T08:09:41;100194.97;;;3.97;100.00
75629;BME280;64213;46.452;16.994;2023-03-03T08:12:44;100192.06;;;4.06;100.00
75629;BME280;64213;46.452;16.994;2023-03-03T08:15:50;100194.56;;;4.09;100.00
75629;BME280;64213;46.452;16.994;2023-03-03T08:18:53;100189.00;;;4.18;100.00
75629;BME280;64213;46.452;16.994;2023-03-03T08:22:11;100189.41;;;4.31;100.00
75629;BME280;64213;46.452;16.994;2023-03-03T08:25:15;100193.19;;;4.48;100.00
75629;BME280;64213;46.452;16.994;2023-03-03T08:28:25;100194.88;;;4.72;100.00
75629;BME280;64213;46.452;16.994;2023-03-03T08:31:27;100195.28;;;4.85;99.22
75629;BME280;64213;46.452;16.994;2023-03-03T08:34:41;100204.16;;;4.81;99.19
75629;BME280;64213;46.452;16.994;2023-03-03T08:37:43;100203.78;;;4.92;98.56
75629;BME280;64213;46.452;16.994;2023-03-03T08:40:46;100199.84;;;4.80;99.16
75629;BME280;64213;46.452;16.994;2023-03-03T08:43:49;100203.72;;;4.93;98.35
75629;BME280;64213;46.452;16.994;2023-03-03T08:46:51;100201.91;;;4.95;98.31
75629;BME280;64213;46.452;16.994;2023-03-03T08:49:53;100193.13;;;5.18;97.77
75629;BME280;64213;46.452;16.994;2023-03-03T08:52:55;100202.09;;;5.34;97.11
75629;BME280;64213;46.452;16.994;2023-03-03T08:55:58;100204.16;;;5.48;96.26
75629;BME280;64213;46.452;16.994;2023-03-03T08:59:00;100202.81;;;5.60;95.85
75629;BME280;64213;46.452;16.994;2023-03-03T09:02:05;100201.16;;;5.57;95.47
75629;BME280;64213;46.452;16.994;2023-03-03T09:05:08;100202.47;;;5.68;94.84
75629;BME280;64213;46.452;16.994;2023-03-03T09:08:10;100199.56;;;5.75;95.01
75629;BME280;64213;46.452;16.994;2023-03-03T09:11:13;100199.41;;;6.00;94.55
75629;BME280;64213;46.452;16.994;2023-03-03T09:14:17;100196.09;;;6.36;93.71
75629;BME280;64213;46.452;16.994;2023-03-03T09:17:30;100199.31;;;6.43;92.39
75629;BME280;64213;46.452;16.994;2023-03-03T09:20:36;100193.72;;;6.69;91.47
75629;BME280;64213;46.452;16.994;2023-03-03T09:23:41;100204.09;;;6.72;90.93
75629;BME280;64213;46.452;16.994;2023-03-03T09:26:47;100203.97;;;6.94;89.96
75629;BME280;64213;46.452;16.994;2023-03-03T09:29:49;100196.72;;;7.18;89.39
75629;BME280;64213;46.452;16.994;2023-03-03T09:32:52;100195.09;;;7.33;89.02
75629;BME280;64213;46.452;16.994;2023-03-03T09:36:02;100191.03;;;7.45;87.95
75629;BME280;64213;46.452;16.994;2023-03-03T09:39:16;100205.75;;;7.49;88.25
75629;BME280;64213;46.452;16.994;2023-03-03T09:43:05;100208.47;;;7.48;88.17
75629;BME280;64213;46.452;16.994;2023-03-03T09:46:16;100210.06;;;7.14;89.78
75629;BME280;64213;46.452;16.994;2023-03-03T09:56:33;100213.78;;;6.91;90.38
75629;BME280;64213;46.452;16.994;2023-03-03T09:59:47;100219.09;;;6.70;91.19
75629;BME280;64213;46.452;16.994;2023-03-03T10:13:17;100215.09;;;6.22;92.77
75629;BME280;64213;46.452;16.994;2023-03-03T10:19:44;100223.22;;;6.37;92.91
75629;BME280;64213;46.452;16.994;2023-03-03T10:22:54;100226.91;;;6.33;92.71
75629;BME280;64213;46.452;16.994;2023-03-03T10:29:30;100216.84;;;6.42;93.04
75629;BME280;64213;46.452;16.994;2023-03-03T10:33:04;100217.91;;;6.38;92.94
75629;BME280;64213;46.452;16.994;2023-03-03T10:40:12;100220.41;;;6.60;92.57
75629;BME280;64213;46.452;16.994;2023-03-03T10:47:20;100204.47;;;6.65;90.96
75629;BME280;64213;46.452;16.994;2023-03-03T10:57:34;100197.56;;;7.00;89.97
75629;BME280;64213;46.452;16.994;2023-03-03T11:07:38;100188.69;;;7.21;88.84
75629;BME280;64213;46.452;16.994;2023-03-03T11:14:11;100192.56;;;7.32;88.29
75629;BME280;64213;46.452;16.994;2023-03-03T11:23:49;100183.59;;;7.36;87.97
75629;BME280;64213;46.452;16.994;2023-03-03T11:34:17;100189.06;;;7.67;85.69
75629;BME280;64213;46.452;16.994;2023-03-03T11:41:00;100184.03;;;7.98;83.93
75629;BME280;64213;46.452;16.994;2023-03-03T11:44:21;100184.09;;;7.96;84.34
75629;BME280;64213;46.452;16.994;2023-03-03T11:47:41;100183.00;;;8.18;83.38
75629;BME280;64213;46.452;16.994;2023-03-03T11:50:59;100178.59;;;8.18;83.53
75629;BME280;64213;46.452;16.994;2023-03-03T11:54:23;100181.94;;;8.04;83.23
75629;BME280;64213;46.452;16.994;2023-03-03T12:04:35;100169.53;;;8.24;82.30
75629;BME280;64213;46.452;16.994;2023-03-03T12:07:43;100168.09;;;8.34;80.94
75629;BME280;64213;46.452;16.994;2023-03-03T12:10:58;100162.16;;;8.30;81.06
75629;BME280;64213;46.452;16.994;2023-03-03T12:14:16;100165.53;;;8.32;81.64
75629;BME280;64213;46.452;16.994;2023-03-03T12:17:50;100160.19;;;8.34;81.28
75629;BME280;64213;46.452;16.994;2023-03-03T12:24:39;100161.28;;;8.30;81.07
75629;BME280;64213;46.452;16.994;2023-03-03T12:27:49;100159.22;;;8.19;80.96
75629;BME280;64213;46.452;16.994;2023-03-03T12:34:13;100158.19;;;8.22;80.82
75629;BME280;64213;46.452;16.994;2023-03-03T12:40:50;100148.13;;;8.30;81.12
75629;BME280;64213;46.452;16.994;2023-03-03T12:44:16;100149.81;;;8.31;80.81
75629;BME280;64213;46.452;16.994;2023-03-03T12:47:27;100156.88;;;8.13;81.00
75629;BME280;64213;46.452;16.994;2023-03-03T12:50:40;100148.97;;;8.13;80.96
75629;BME280;64213;46.452;16.994;2023-03-03T12:57:34;100145.37;;;7.98;81.06
75629;BME280;64213;46.452;16.994;2023-03-03T13:01:02;100146.22;;;7.99;81.83
75629;BME280;64213;46.452;16.994;2023-03-03T13:13:53;100139.00;;;8.02;82.92
75629;BME280;64213;46.452;16.994;2023-03-03T13:24:58;100143.97;;;8.08;82.64
75629;BME280;64213;46.452;16.994;2023-03-03T13:27:42;100137.59;;;8.12;82.34
75629;BME280;64213;46.452;16.994;2023-03-03T13:30:49;100136.75;;;8.12;81.94
75629;BME280;64213;46.452;16.994;2023-03-03T13:34:01;100142.13;;;8.10;82.06
75629;BME280;64213;46.452;16.994;2023-03-03T13:37:25;100144.44;;;7.99;82.39
75629;BME280;64213;46.452;16.994;2023-03-03T13:40:39;100129.19;;;7.88;82.63
75629;BME280;64213;46.452;16.994;2023-03-03T13:43:57;100135.16;;;7.92;83.12
75629;BME280;64213;46.452;16.994;2023-03-03T13:47:30;100127.88;;;7.80;83.02
75629;BME280;64213;46.452;16.994;2023-03-03T13:54:13;100135.94;;;7.77;83.39
75629;BME280;64213;46.452;16.994;2023-03-03T14:04:00;100132.06;;;7.66;84.31
75629;BME280;64213;46.452;16.994;2023-03-03T14:07:17;100127.56;;;7.68;84.67
75629;BME280;64213;46.452;16.994;2023-03-03T14:10:31;100132.06;;;7.66;84.82
75629;BME280;64213;46.452;16.994;2023-03-03T14:20:26;100125.56;;;7.74;84.52
75629;BME280;64213;46.452;16.994;2023-03-03T14:23:36;100113.19;;;7.76;84.54
75629;BME280;64213;46.452;16.994;2023-03-03T14:26:50;100111.37;;;7.93;84.67
75629;BME280;64213;46.452;16.994;2023-03-03T14:29:52;100101.19;;;8.03;83.67
75629;BME280;64213;46.452;16.994;2023-03-03T14:36:05;100100.28;;;8.04;83.68
75629;BME280;64213;46.452;16.994;2023-03-03T14:45:54;100094.44;;;8.15;83.59
75629;BME280;64213;46.452;16.994;2023-03-03T14:48:59;100104.44;;;8.08;83.61
75629;BME280;64213;46.452;16.994;2023-03-03T14:55:43;100103.06;;;8.01;84.03
75629;BME280;64213;46.452;16.994;2023-03-03T14:58:46;100110.19;;;7.99;84.13
75629;BME280;64213;46.452;16.994;2023-03-03T15:08:34;100105.63;;;8.03;84.12
75629;BME280;64213;46.452;16.994;2023-03-03T15:11:36;100103.16;;;8.00;83.95
75629;BME280;64213;46.452;16.994;2023-03-03T15:14:43;100101.13;;;8.05;84.07
75629;BME280;64213;46.452;16.994;2023-03-03T15:21:11;100104.13;;;8.64;82.51
75629;BME280;64213;46.452;16.994;2023-03-03T15:24:44;100105.75;;;8.50;81.94
75629;BME280;64213;46.452;16.994;2023-03-03T15:34:24;100097.03;;;7.99;84.07
75629;BME280;64213;46.452;16.994;2023-03-03T15:44:13;100099.16;;;7.58;85.43
75629;BME280;64213;46.452;16.994;2023-03-03T15:58:14;100101.72;;;7.25;87.10
75629;BME280;64213;46.452;16.994;2023-03-03T16:01:32;100101.16;;;7.18;87.43
75629;BME280;64213;46.452;16.994;2023-03-03T16:04:38;100099.59;;;7.14;87.90
75629;BME280;64213;46.452;16.994;2023-03-03T16:11:16;100104.53;;;7.03;88.06
75629;BME280;64213;46.452;16.994;2023-03-03T16:14:57;100102.25;;;6.95;88.23
75629;BME280;64213;46.452;16.994;2023-03-03T16:21:38;100101.78;;;6.87;88.92
75629;BME280;64213;46.452;16.994;2023-03-03T16:25:02;100103.91;;;6.79;89.53
75629;BME280;64213;46.452;16.994;2023-03-03T16:28:18;100102.00;;;6.63;89.70
75629;BME280;64213;46.452;16.994;2023-03-03T16:31:28;100109.19;;;6.60;89.97
75629;BME280;64213;46.452;16.994;2023-03-03T16:34:46;100110.19;;;6.57;90.71
75629;BME280;64213;46.452;16.994;2023-03-03T16:41:14;100122.97;;;6.46;90.86
75629;BME280;64213;46.452;16.994;2023-03-03T16:44:29;100118.94;;;6.39;91.33
75629;BME280;64213;46.452;16.994;2023-03-03T17:00:57;100137.25;;;6.01;92.89
75629;BME280;64213;46.452;16.994;2023-03-03T17:10:31;100149.31;;;5.85;93.76
75629;BME280;64213;46.452;16.994;2023-03-03T17:17:14;100158.41;;;5.76;94.35
75629;BME280;64213;46.452;16.994;2023-03-03T17:20:34;100166.63;;;5.68;94.60
75629;BME280;64213;46.452;16.994;2023-03-03T17:44:23;100172.03;;;4.99;97.64
75629;BME280;64213;46.452;16.994;2023-03-03T17:51:23;100185.78;;;4.82;98.22
75629;BME280;64213;46.452;16.994;2023-03-03T18:05:22;100209.28;;;4.37;99.31
75629;BME280;64213;46.452;16.994;2023-03-03T18:23:28;100210.09;;;4.14;100.00
75629;BME280;64213;46.452;16.994;2023-03-03T18:26:35;100212.91;;;4.08;100.00
75629;BME280;64213;46.452;16.994;2023-03-03T18:29:38;100220.22;;;3.98;100.00
75629;BME280;64213;46.452;16.994;2023-03-03T18:39:43;100224.59;;;3.99;100.00
75629;BME280;64213;46.452;16.994;2023-03-03T18:42:47;100227.50;;;3.90;100.00
75629;BME280;64213;46.452;16.994;2023-03-03T18:45:55;100233.91;;;3.81;100.00
75629;BME280;64213;46.452;16.994;2023-03-03T18:49:16;100235.69;;;3.79;100.00
75629;BME280;64213;46.452;16.994;2023-03-03T18:55:45;100241.66;;;3.84;100.00
75629;BME280;64213;46.452;16.994;2023-03-03T18:58:50;100242.47;;;3.86;100.00
75629;BME280;64213;46.452;16.994;2023-03-03T19:01:52;100245.47;;;3.74;100.00
75629;BME280;64213;46.452;16.994;2023-03-03T19:05:18;100245.78;;;3.65;100.00
75629;BME280;64213;46.452;16.994;2023-03-03T19:11:50;100244.25;;;3.58;100.00
75629;BME280;64213;46.452;16.994;2023-03-03T19:14:55;100239.22;;;3.52;100.00
75629;BME280;64213;46.452;16.994;2023-03-03T19:18:20;100247.19;;;3.47;100.00
75629;BME280;64213;46.452;16.994;2023-03-03T19:21:29;100244.75;;;3.42;100.00
75629;BME280;64213;46.452;16.994;2023-03-03T19:24:33;100243.91;;;3.42;100.00
75629;BME280;64213;46.452;16.994;2023-03-03T19:28:00;100246.72;;;3.34;100.00
75629;BME280;64213;46.452;16.994;2023-03-03T19:31:28;100244.37;;;3.26;100.00
75629;BME280;64213;46.452;16.994;2023-03-03T19:41:45;100252.69;;;3.39;100.00
75629;BME280;64213;46.452;16.994;2023-03-03T19:52:00;100265.62;;;3.14;100.00
75629;BME280;64213;46.452;16.994;2023-03-03T20:12:52;100289.97;;;2.55;100.00
75629;BME280;64213;46.452;16.994;2023-03-03T20:26:26;100293.88;;;2.72;100.00
75629;BME280;64213;46.452;16.994;2023-03-03T20:47:00;100298.44;;;2.64;100.00
75629;BME280;64213;46.452;16.994;2023-03-03T20:50:14;100292.50;;;2.59;100.00
75629;BME280;64213;46.452;16.994;2023-03-03T20:53:32;100296.84;;;2.58;100.00
75629;BME280;64213;46.452;16.994;2023-03-03T21:03:40;100298.81;;;2.50;100.00
75629;BME280;64213;46.452;16.994;2023-03-03T21:06:43;100297.19;;;2.46;100.00
75629;BME280;64213;46.452;16.994;2023-03-03T21:09:46;100285.94;;;2.44;100.00
75629;BME280;64213;46.452;16.994;2023-03-03T21:12:55;100298.84;;;2.48;100.00
75629;BME280;64213;46.452;16.994;2023-03-03T21:19:26;100297.19;;;2.46;100.00
75629;BME280;64213;46.452;16.994;2023-03-03T21:22:29;100297.22;;;2.44;100.00
75629;BME280;64213;46.452;16.994;2023-03-03T21:29:01;100304.69;;;2.25;100.00
75629;BME280;64213;46.452;16.994;2023-03-03T21:32:07;100308.44;;;2.14;100.00
75629;BME280;64213;46.452;16.994;2023-03-03T21:35:21;100304.56;;;1.96;100.00
75629;BME280;64213;46.452;16.994;2023-03-03T21:38:34;100301.31;;;1.86;100.00
75629;BME280;64213;46.452;16.994;2023-03-03T21:42:00;100290.28;;;1.75;100.00
75629;BME280;64213;46.452;16.994;2023-03-03T21:45:11;100291.19;;;1.72;100.00
75629;BME280;64213;46.452;16.994;2023-03-03T21:48:13;100285.06;;;1.75;100.00
75629;BME280;64213;46.452;16.994;2023-03-03T21:51:16;100287.94;;;1.64;100.00
75629;BME280;64213;46.452;16.994;2023-03-03T21:54:18;100291.53;;;1.58;100.00
75629;BME280;64213;46.452;16.994;2023-03-03T21:57:20;100295.13;;;1.54;100.00
75629;BME280;64213;46.452;16.994;2023-03-03T22:00:23;100300.31;;;1.54;100.00
75629;BME280;64213;46.452;16.994;2023-03-03T22:03:25;100301.28;;;1.50;100.00
75629;BME280;64213;46.452;16.994;2023-03-03T22:06:27;100303.97;;;1.47;100.00
75629;BME280;64213;46.452;16.994;2023-03-03T22:09:30;100298.13;;;1.36;100.00